Terminal Aerodrome Forecast
Issued by NWS

Home | Current Version | Previous Version | Graphics & Text | Print | Product List | Glossary Off
Versions: 1 2 3 4 5 6 7 8 9 10 11 12 13 14 15 16 17 18 19 20 21 22 23 24 25 26 27 28 29 30

000
FTUS43 KLOT 282300
TAFDPA
TAF
KDPA 282340Z 2900/2924 08008KT P6SM -SHRA SCT060 BKN080 OVC150
     FM290300 10007KT P6SM SCT070 BKN150
     FM290900 14007KT P6SM BKN050 OVC080
     FM291200 15008KT P6SM VCSH BKN050 OVC080
     FM291500 19008KT P6SM SCT050 BKN100
     FM291700 19013G20KT P6SM VCTS SCT060CB BKN200 PROB30 2918/2922
      5SM TSRA BR BKN050CB=

USA.gov is the U.S. government's official web portal to all federal, state and local government web resources and services.